createdAt,value
2017-07-14T00:00:46.373Z,11.70
2017-07-14T00:03:13.895Z,11.60
2017-07-14T00:05:41.749Z,11.60
2017-07-14T00:08:09.273Z,11.60
2017-07-14T00:10:36.799Z,11.60
2017-07-14T00:13:05.469Z,11.60
2017-07-14T00:15:32.997Z,11.60
2017-07-14T00:18:00.567Z,11.50
2017-07-14T00:20:28.115Z,11.40
2017-07-14T00:22:55.653Z,11.30
2017-07-14T00:25:23.211Z,11.20
2017-07-14T00:27:50.749Z,11.10
2017-07-14T00:30:18.255Z,11.10
2017-07-14T00:32:45.816Z,11.10
2017-07-14T00:35:13.353Z,11.10
2017-07-14T00:37:40.862Z,11.10
2017-07-14T00:40:09.157Z,11.10
2017-07-14T00:42:37.181Z,11.10
2017-07-14T00:45:04.703Z,11.10
2017-07-14T00:47:32.225Z,11.00
2017-07-14T00:49:59.781Z,10.90
2017-07-14T00:52:27.298Z,10.80
2017-07-14T00:54:54.839Z,10.90
2017-07-14T00:57:22.359Z,10.90
2017-07-14T00:59:50.642Z,10.80
2017-07-14T01:02:18.974Z,10.70
2017-07-14T01:04:46.553Z,10.70
2017-07-14T01:07:14.098Z,10.70
2017-07-14T01:09:41.624Z,10.70
2017-07-14T01:12:09.524Z,10.80
2017-07-14T01:14:37.049Z,10.80
2017-07-14T01:17:04.583Z,10.90
2017-07-14T01:19:32.100Z,10.90
2017-07-14T01:21:59.630Z,11.00
2017-07-14T01:24:27.175Z,11.00
2017-07-14T01:26:54.707Z,11.10
2017-07-14T01:29:22.236Z,11.10
2017-07-14T01:31:49.774Z,11.10
2017-07-14T01:34:17.661Z,11.10
2017-07-14T01:36:45.169Z,11.10
2017-07-14T01:39:13.444Z,11.10
2017-07-14T01:41:42.066Z,11.00
2017-07-14T01:44:09.589Z,11.00
2017-07-14T01:46:37.110Z,11.10
2017-07-14T01:49:05.059Z,11.00
2017-07-14T01:51:32.574Z,10.90
2017-07-14T01:54:00.099Z,10.80
2017-07-14T01:56:27.644Z,10.80
2017-07-14T01:58:55.179Z,10.70
2017-07-14T02:01:22.703Z,10.70
2017-07-14T02:03:50.536Z,10.70
2017-07-14T02:06:18.046Z,10.70
2017-07-14T02:08:45.559Z,10.70
2017-07-14T02:11:13.346Z,10.70
2017-07-14T02:13:40.871Z,10.70
2017-07-14T02:16:08.407Z,10.80
2017-07-14T02:18:35.954Z,10.70
2017-07-14T02:21:03.477Z,10.60
2017-07-14T02:23:31.794Z,10.70
2017-07-14T02:25:59.343Z,10.60
2017-07-14T02:28:26.881Z,10.70
2017-07-14T02:30:54.471Z,10.70
2017-07-14T02:33:22.050Z,10.70
2017-07-14T02:35:49.602Z,10.70
2017-07-14T02:38:17.142Z,10.70
2017-07-14T02:40:44.674Z,10.70
2017-07-14T02:43:13.017Z,10.60
2017-07-14T02:45:40.534Z,10.60
2017-07-14T02:48:08.428Z,10.50
2017-07-14T02:50:35.936Z,10.50
2017-07-14T02:53:04.208Z,10.30
2017-07-14T02:55:32.517Z,10.30
2017-07-14T02:58:00.052Z,10.20
2017-07-14T03:00:27.600Z,10.30
2017-07-14T03:02:56.238Z,10.30
2017-07-14T03:05:23.772Z,10.30
2017-07-14T03:07:51.277Z,10.20
2017-07-14T03:10:19.090Z,10.20
2017-07-14T03:12:46.599Z,10.20
2017-07-14T03:15:14.105Z,10.20
2017-07-14T03:17:41.659Z,10.20
2017-07-14T03:20:09.172Z,10.20
2017-07-14T03:22:36.707Z,10.20
2017-07-14T03:25:04.255Z,10.20
2017-07-14T03:27:31.784Z,10.20
2017-07-14T03:29:59.324Z,10.10
2017-07-14T03:32:27.166Z,10.10
2017-07-14T03:34:54.715Z,10.10
2017-07-14T03:37:22.262Z,10.10
2017-07-14T03:39:49.806Z,10.10
2017-07-14T03:42:17.345Z,10.10
2017-07-14T03:44:44.903Z,10.10
2017-07-14T03:47:12.469Z,10.10
2017-07-14T03:49:40.004Z,10.10
2017-07-14T03:52:07.555Z,10.00
2017-07-14T03:54:35.079Z,10.00
2017-07-14T03:57:02.605Z,10.00
2017-07-14T03:59:30.124Z,10.00
2017-07-14T04:01:57.679Z,9.90
2017-07-14T04:04:25.242Z,9.80
2017-07-14T04:06:52.770Z,9.80
2017-07-14T04:09:20.657Z,9.80
2017-07-14T04:11:48.170Z,9.70
2017-07-14T04:14:15.682Z,9.70
2017-07-14T04:16:43.224Z,9.80
2017-07-14T04:19:10.739Z,9.90
2017-07-14T04:21:38.287Z,9.90
2017-07-14T04:24:05.802Z,10.00
2017-07-14T04:26:35.169Z,10.10
2017-07-14T04:29:02.706Z,10.20
2017-07-14T04:31:30.238Z,10.40
2017-07-14T04:33:58.112Z,10.50
2017-07-14T04:36:25.666Z,10.60
2017-07-14T04:38:54.044Z,10.70
2017-07-14T04:41:21.668Z,10.80
2017-07-14T04:43:50.127Z,10.90
2017-07-14T04:46:17.659Z,10.90
2017-07-14T04:48:45.475Z,10.90
2017-07-14T04:51:13.029Z,10.90
2017-07-14T04:53:40.548Z,11.00
2017-07-14T04:56:08.124Z,11.10
2017-07-14T04:58:35.728Z,11.10
2017-07-14T05:01:03.274Z,11.20
2017-07-14T05:03:30.823Z,11.10
2017-07-14T05:05:58.408Z,11.20
2017-07-14T05:08:25.970Z,11.10
2017-07-14T05:10:53.584Z,10.90
2017-07-14T05:13:21.135Z,10.90
2017-07-14T05:15:49.422Z,10.80
2017-07-14T05:18:17.242Z,10.80
2017-07-14T05:20:44.785Z,10.80
2017-07-14T05:23:12.339Z,10.90
2017-07-14T05:25:40.198Z,11.00
2017-07-14T05:28:07.734Z,11.10
2017-07-14T05:30:35.259Z,11.30
2017-07-14T05:33:06.970Z,11.40
2017-07-14T05:35:34.518Z,11.60
2017-07-14T05:38:02.037Z,11.70
2017-07-14T05:40:30.689Z,12.00
2017-07-14T05:42:58.207Z,11.90
2017-07-14T05:45:25.707Z,12.10
2017-07-14T05:47:53.265Z,12.30
2017-07-14T05:50:20.790Z,12.60
2017-07-14T05:52:48.783Z,12.80
2017-07-14T05:55:16.317Z,13.10
2017-07-14T05:57:43.817Z,13.40
2017-07-14T06:00:11.364Z,13.70
2017-07-14T06:02:38.903Z,14.10
2017-07-14T06:05:06.464Z,14.40
2017-07-14T06:07:34.001Z,14.80
2017-07-14T06:10:02.031Z,15.30
2017-07-14T06:12:29.542Z,15.40
2017-07-14T06:14:57.097Z,15.50
2017-07-14T06:17:24.631Z,15.50
2017-07-14T06:19:52.918Z,15.40
2017-07-14T06:22:20.468Z,15.50
2017-07-14T06:24:48.273Z,15.40
2017-07-14T06:27:15.820Z,15.30
2017-07-14T06:29:43.339Z,15.20
2017-07-14T06:32:10.880Z,15.00
2017-07-14T06:34:38.434Z,15.20
2017-07-14T06:37:05.966Z,15.90
2017-07-14T06:39:33.766Z,16.60
2017-07-14T06:42:01.286Z,17.50
2017-07-14T06:44:28.814Z,18.40
2017-07-14T06:46:56.360Z,19.10
2017-07-14T06:49:24.643Z,20.40
2017-07-14T06:51:52.962Z,20.60
2017-07-14T06:54:20.503Z,20.60
2017-07-14T06:56:48.052Z,20.60
2017-07-14T06:59:15.586Z,20.60
2017-07-14T07:01:43.146Z,20.60
2017-07-14T07:04:11.484Z,20.60
2017-07-14T07:06:38.997Z,20.60
2017-07-14T07:09:06.973Z,21.00
2017-07-14T07:11:34.524Z,21.40
2017-07-14T07:14:02.062Z,20.90
2017-07-14T07:16:29.936Z,20.30
2017-07-14T07:19:00.848Z,19.20
2017-07-14T07:21:28.606Z,19.20
2017-07-14T07:23:56.688Z,18.70
2017-07-14T07:26:24.250Z,18.20
2017-07-14T07:28:53.490Z,17.60
2017-07-14T07:31:21.310Z,17.60
2017-07-14T07:33:49.861Z,17.40
2017-07-14T07:36:17.470Z,17.30
2017-07-14T07:38:45.265Z,17.20
2017-07-14T07:41:12.797Z,17.20
2017-07-14T07:43:40.335Z,17.30
2017-07-14T07:46:07.882Z,17.30
2017-07-14T07:48:41.478Z,17.50
2017-07-14T07:51:09.484Z,17.60
2017-07-14T07:53:37.022Z,17.80
2017-07-14T07:56:04.624Z,18.20
2017-07-14T07:58:32.451Z,19.00
2017-07-14T08:00:59.999Z,20.10
2017-07-14T08:03:27.530Z,20.80
2017-07-14T08:05:55.094Z,21.40
2017-07-14T08:08:22.619Z,21.70
2017-07-14T08:10:50.158Z,21.60
2017-07-14T08:13:18.489Z,20.80
2017-07-14T08:15:46.072Z,20.10
2017-07-14T08:18:13.607Z,19.50
2017-07-14T08:20:41.597Z,19.00
2017-07-14T08:23:09.160Z,18.50
2017-07-14T08:25:36.708Z,18.20
2017-07-14T08:28:04.514Z,18.00
2017-07-14T08:30:32.043Z,17.90
2017-07-14T08:32:59.579Z,17.90
2017-07-14T08:35:27.366Z,17.90
2017-07-14T08:37:55.737Z,18.00
2017-07-14T08:40:23.329Z,18.10
2017-07-14T08:42:51.180Z,18.30
2017-07-14T08:45:18.713Z,18.50
2017-07-14T08:47:46.248Z,18.50
2017-07-14T08:50:14.064Z,18.50
2017-07-14T08:52:41.590Z,18.60
2017-07-14T08:55:09.109Z,18.50
2017-07-14T08:57:37.422Z,18.60
2017-07-14T09:00:04.959Z,18.60
2017-07-14T09:02:32.503Z,18.60
2017-07-14T09:05:00.803Z,18.80
2017-07-14T09:07:28.370Z,18.80
2017-07-14T09:09:55.899Z,18.80
2017-07-14T09:12:24.547Z,18.50
2017-07-14T09:14:52.076Z,18.50
2017-07-14T09:17:19.613Z,18.40
2017-07-14T09:19:47.414Z,18.30
2017-07-14T09:22:15.896Z,18.30
2017-07-14T09:24:44.072Z,18.30
2017-07-14T09:27:12.988Z,18.00
2017-07-14T09:29:40.513Z,17.90
2017-07-14T09:32:08.027Z,17.80
2017-07-14T09:34:35.596Z,17.70
2017-07-14T09:37:03.929Z,17.50
2017-07-14T09:39:31.479Z,17.50
2017-07-14T09:41:59.021Z,17.40
2017-07-14T09:44:26.550Z,17.40
2017-07-14T09:46:54.106Z,17.50
2017-07-14T09:49:22.506Z,17.60
2017-07-14T09:51:50.117Z,17.60
2017-07-14T09:54:17.745Z,18.10
2017-07-14T09:56:47.330Z,18.60
2017-07-14T09:59:14.859Z,19.00
2017-07-14T10:01:42.392Z,19.30
2017-07-14T10:04:10.267Z,19.60
2017-07-14T10:06:37.841Z,20.20
2017-07-14T10:09:05.370Z,20.60
2017-07-14T10:11:32.930Z,21.00
2017-07-14T10:14:00.474Z,21.30
2017-07-14T10:16:28.026Z,21.50
2017-07-14T10:18:55.593Z,21.70
2017-07-14T10:21:23.166Z,21.80
2017-07-14T10:23:50.954Z,21.80
2017-07-14T10:26:18.518Z,21.90
2017-07-14T10:28:46.063Z,22.00
2017-07-14T10:31:13.591Z,22.10
2017-07-14T10:33:41.106Z,22.30
2017-07-14T10:36:08.645Z,22.30
2017-07-14T10:38:36.442Z,22.30
2017-07-14T10:41:03.993Z,22.10
2017-07-14T10:43:31.534Z,22.10
2017-07-14T10:45:59.106Z,22.00
2017-07-14T10:48:27.442Z,22.20
2017-07-14T10:50:54.987Z,22.20
2017-07-14T10:53:22.883Z,22.30
2017-07-14T10:55:50.408Z,22.40
2017-07-14T10:58:17.934Z,22.60
2017-07-14T11:00:45.853Z,22.80
2017-07-14T11:03:13.384Z,22.80
2017-07-14T11:05:40.910Z,22.80
2017-07-14T11:08:08.828Z,22.70
2017-07-14T11:10:36.684Z,22.60
2017-07-14T11:13:04.225Z,22.50
2017-07-14T11:15:31.804Z,22.30
2017-07-14T11:17:59.385Z,22.20
2017-07-14T11:20:27.339Z,21.90
2017-07-14T11:22:54.860Z,21.40
2017-07-14T11:25:23.155Z,20.80
2017-07-14T11:27:51.141Z,20.80
2017-07-14T11:30:18.670Z,20.70
2017-07-14T11:32:46.198Z,20.60
2017-07-14T11:35:13.748Z,20.70
2017-07-14T11:37:41.306Z,21.00
2017-07-14T11:40:08.883Z,21.30
2017-07-14T11:42:36.421Z,21.70
2017-07-14T11:45:04.048Z,22.10
2017-07-14T11:47:31.597Z,22.60
2017-07-14T11:49:59.148Z,22.70
2017-07-14T11:52:26.705Z,22.60
2017-07-14T11:54:54.240Z,22.30
2017-07-14T11:57:22.191Z,21.80
2017-07-14T11:59:49.706Z,21.50
2017-07-14T12:02:17.232Z,21.20
2017-07-14T12:04:45.403Z,20.80
2017-07-14T12:07:13.705Z,20.40
2017-07-14T12:09:41.273Z,20.40
2017-07-14T12:12:08.854Z,20.40
2017-07-14T12:14:36.404Z,20.50
2017-07-14T12:17:03.936Z,20.60
2017-07-14T12:19:31.723Z,20.60
2017-07-14T12:21:59.274Z,20.60
2017-07-14T12:24:26.821Z,20.60
2017-07-14T12:26:54.638Z,20.40
2017-07-14T12:29:22.977Z,20.40
2017-07-14T12:31:50.546Z,20.30
2017-07-14T12:34:18.111Z,20.50
2017-07-14T12:36:45.649Z,20.60
2017-07-14T12:39:13.293Z,20.60
2017-07-14T12:41:40.882Z,20.60
2017-07-14T12:44:08.679Z,20.70
2017-07-14T12:46:36.224Z,20.70
2017-07-14T12:49:03.742Z,21.00
2017-07-14T12:51:31.610Z,21.30
2017-07-14T12:53:59.171Z,21.40
2017-07-14T12:56:26.812Z,21.30
2017-07-14T12:58:55.123Z,21.00
2017-07-14T13:01:22.680Z,21.00
2017-07-14T13:03:50.244Z,20.90
2017-07-14T13:06:18.333Z,20.80
2017-07-14T13:08:45.890Z,20.80
2017-07-14T13:11:13.417Z,21.00
2017-07-14T13:13:41.253Z,21.20
2017-07-14T13:16:08.851Z,21.40
2017-07-14T13:18:38.424Z,21.90
2017-07-14T13:21:06.264Z,22.20
2017-07-14T13:23:33.869Z,22.40
2017-07-14T13:26:01.394Z,23.00
2017-07-14T13:28:29.324Z,23.90
2017-07-14T13:30:56.931Z,24.00
2017-07-14T13:33:25.314Z,23.70
2017-07-14T13:35:53.161Z,23.50
2017-07-14T13:38:20.784Z,22.70
2017-07-14T13:40:48.312Z,22.40
2017-07-14T13:43:16.900Z,21.90
2017-07-14T13:45:46.207Z,21.50
2017-07-14T13:48:13.733Z,21.20
2017-07-14T13:50:41.287Z,20.80
2017-07-14T13:53:08.977Z,20.70
2017-07-14T13:55:37.273Z,20.70
2017-07-14T13:58:05.630Z,20.70
2017-07-14T14:00:33.158Z,20.80
2017-07-14T14:03:00.694Z,20.90
2017-07-14T14:05:28.521Z,21.10
2017-07-14T14:07:56.812Z,21.30
2017-07-14T14:10:24.335Z,21.30
2017-07-14T14:12:52.375Z,21.40
2017-07-14T14:15:19.997Z,21.40
2017-07-14T14:17:51.644Z,21.60
2017-07-14T14:20:19.604Z,21.70
2017-07-14T14:22:47.131Z,21.70
2017-07-14T14:25:14.658Z,22.40
2017-07-14T14:27:42.207Z,22.80
2017-07-14T14:30:09.786Z,22.90
2017-07-14T14:32:37.336Z,23.10
2017-07-14T14:35:04.883Z,23.40
2017-07-14T14:37:32.826Z,24.90
2017-07-14T14:40:01.163Z,27.30
2017-07-14T14:42:28.692Z,27.20
2017-07-14T14:44:56.500Z,27.90
2017-07-14T14:47:24.059Z,27.80
2017-07-14T14:49:51.578Z,26.80
2017-07-14T14:52:19.154Z,26.60
2017-07-14T14:54:46.767Z,25.90
2017-07-14T14:57:14.302Z,25.00
2017-07-14T14:59:41.830Z,24.10
2017-07-14T15:02:09.380Z,23.60
2017-07-14T15:04:37.288Z,23.20
2017-07-14T15:07:04.808Z,22.90
2017-07-14T15:09:32.318Z,22.70
2017-07-14T15:11:59.917Z,22.50
2017-07-14T15:14:31.085Z,22.40
2017-07-14T15:16:58.702Z,22.30
2017-07-14T15:19:26.298Z,22.40
2017-07-14T15:21:54.137Z,22.70
2017-07-14T15:24:21.804Z,23.30
2017-07-14T15:26:49.674Z,24.40
2017-07-14T15:29:17.551Z,25.80
2017-07-14T15:31:45.102Z,25.70
2017-07-14T15:34:12.679Z,25.90
2017-07-14T15:36:41.414Z,25.60
2017-07-14T15:39:08.949Z,24.70
2017-07-14T15:41:36.548Z,23.90
2017-07-14T15:44:04.146Z,23.00
2017-07-14T15:46:32.007Z,22.40
2017-07-14T15:48:59.617Z,21.90
2017-07-14T15:51:27.249Z,21.60
2017-07-14T15:53:55.097Z,21.40
2017-07-14T15:56:22.725Z,21.20
2017-07-14T15:58:50.328Z,21.20
2017-07-14T16:01:17.865Z,21.10
2017-07-14T16:03:45.394Z,21.00
2017-07-14T16:06:12.939Z,21.00
2017-07-14T16:08:40.484Z,21.00
2017-07-14T16:11:08.014Z,20.90
2017-07-14T16:13:35.589Z,20.90
2017-07-14T16:16:03.239Z,20.80
2017-07-14T16:18:30.822Z,20.70
2017-07-14T16:20:58.350Z,20.70
2017-07-14T16:23:26.639Z,20.70
2017-07-14T16:25:54.268Z,21.10
2017-07-14T16:28:21.972Z,21.30
2017-07-14T16:30:49.545Z,21.40
2017-07-14T16:33:17.922Z,21.40
2017-07-14T16:35:45.446Z,21.40
2017-07-14T16:38:13.120Z,21.30
2017-07-14T16:40:40.680Z,21.10
2017-07-14T16:43:08.221Z,20.80
2017-07-14T16:45:36.372Z,20.70
2017-07-14T16:48:03.981Z,20.60
2017-07-14T16:50:31.528Z,20.30
2017-07-14T16:52:59.095Z,20.20
2017-07-14T16:55:26.643Z,20.10
2017-07-14T16:57:54.339Z,20.00
2017-07-14T17:00:22.193Z,19.90
2017-07-14T17:02:49.783Z,19.90
2017-07-14T17:05:17.362Z,19.90
2017-07-14T17:07:45.195Z,19.90
2017-07-14T17:10:12.726Z,19.80
2017-07-14T17:12:40.245Z,19.80
2017-07-14T17:15:08.008Z,19.70
2017-07-14T17:17:35.552Z,19.70
2017-07-14T17:20:03.841Z,19.40
2017-07-14T17:22:31.401Z,19.40
2017-07-14T17:24:58.940Z,19.30
2017-07-14T17:27:27.253Z,18.40
2017-07-14T17:29:56.238Z,18.40
2017-07-14T17:32:23.876Z,17.90
2017-07-14T17:34:51.413Z,17.20
2017-07-14T17:37:18.957Z,16.90
2017-07-14T17:39:46.895Z,16.70
2017-07-14T17:42:14.728Z,16.50
2017-07-14T17:44:42.310Z,16.40
2017-07-14T17:47:10.334Z,16.30
2017-07-14T17:49:37.892Z,16.40
2017-07-14T17:52:05.462Z,16.40
2017-07-14T17:54:33.035Z,16.40
2017-07-14T17:57:00.589Z,16.40
2017-07-14T17:59:28.122Z,16.50
2017-07-14T18:01:55.676Z,16.50
2017-07-14T18:04:23.216Z,16.40
2017-07-14T18:06:50.783Z,16.30
2017-07-14T18:09:18.691Z,16.30
2017-07-14T18:11:46.209Z,16.30
2017-07-14T18:14:13.731Z,16.30
2017-07-14T18:16:41.368Z,16.20
2017-07-14T18:19:08.894Z,16.30
2017-07-14T18:21:36.413Z,16.30
2017-07-14T18:24:04.066Z,16.30
2017-07-14T18:26:31.604Z,16.40
2017-07-14T18:28:59.128Z,16.40
2017-07-14T18:31:26.712Z,16.20
2017-07-14T18:33:54.277Z,16.30
2017-07-14T18:36:21.809Z,16.30
2017-07-14T18:38:49.926Z,16.20
2017-07-14T18:41:17.589Z,16.10
2017-07-14T18:43:45.200Z,16.20
2017-07-14T18:46:13.007Z,16.10
2017-07-14T18:48:42.539Z,16.00
2017-07-14T18:51:10.167Z,16.00
2017-07-14T18:53:38.693Z,15.90
2017-07-14T18:56:06.213Z,15.90
2017-07-14T18:58:33.731Z,15.90
2017-07-14T19:01:01.969Z,15.90
2017-07-14T19:03:29.504Z,15.80
2017-07-14T19:05:57.921Z,15.70
2017-07-14T19:08:25.967Z,15.70
2017-07-14T19:10:53.557Z,15.60
2017-07-14T19:13:21.379Z,15.50
2017-07-14T19:15:48.933Z,15.50
2017-07-14T19:18:16.500Z,15.40
2017-07-14T19:20:44.307Z,15.30
2017-07-14T19:23:11.893Z,15.10
2017-07-14T19:25:39.486Z,15.00
2017-07-14T19:28:07.156Z,14.90
2017-07-14T19:30:34.738Z,14.90
2017-07-14T19:33:02.320Z,14.80
2017-07-14T19:35:30.144Z,14.70
2017-07-14T19:37:57.685Z,14.60
2017-07-14T19:40:25.307Z,14.60
2017-07-14T19:42:52.982Z,14.50
2017-07-14T19:45:20.610Z,14.50
2017-07-14T19:47:48.171Z,14.50
2017-07-14T19:50:16.013Z,14.50
2017-07-14T19:52:43.775Z,14.50
2017-07-14T19:55:11.453Z,14.50
2017-07-14T19:57:39.326Z,14.50
2017-07-14T20:00:06.958Z,14.50
2017-07-14T20:02:34.488Z,14.50
2017-07-14T20:05:02.083Z,14.40
2017-07-14T20:07:29.609Z,14.30
2017-07-14T20:09:57.179Z,14.20
2017-07-14T20:12:24.733Z,14.20
2017-07-14T20:14:52.310Z,14.20
2017-07-14T20:17:20.664Z,14.10
2017-07-14T20:19:48.524Z,14.00
2017-07-14T20:22:16.099Z,14.10
2017-07-14T20:24:43.640Z,14.00
2017-07-14T20:27:11.653Z,14.00
2017-07-14T20:29:39.959Z,13.90
2017-07-14T20:32:08.442Z,13.90
2017-07-14T20:34:37.515Z,13.90
2017-07-14T20:37:05.095Z,13.90
2017-07-14T20:39:32.618Z,13.90
2017-07-14T20:42:01.294Z,14.00
2017-07-14T20:44:28.929Z,14.00
2017-07-14T20:46:56.493Z,14.00
2017-07-14T20:49:24.075Z,14.00
2017-07-14T20:51:51.710Z,14.00
2017-07-14T20:54:19.340Z,14.00
2017-07-14T20:56:48.131Z,14.00
2017-07-14T20:59:15.675Z,13.90
2017-07-14T21:01:43.257Z,13.90
2017-07-14T21:04:10.850Z,13.90
2017-07-14T21:06:38.410Z,13.80
2017-07-14T21:09:06.099Z,13.80
2017-07-14T21:11:34.418Z,13.70
2017-07-14T21:14:01.947Z,13.60
2017-07-14T21:16:29.575Z,13.60
2017-07-14T21:18:57.503Z,13.50
2017-07-14T21:21:25.015Z,13.50
2017-07-14T21:23:52.535Z,13.50
2017-07-14T21:26:20.076Z,13.50
2017-07-14T21:28:47.630Z,13.50
2017-07-14T21:31:15.146Z,13.40
2017-07-14T21:33:42.685Z,13.40
2017-07-14T21:36:10.351Z,13.50
2017-07-14T21:38:37.882Z,13.50
2017-07-14T21:41:05.838Z,13.50
2017-07-14T21:43:33.418Z,13.50
2017-07-14T21:46:00.953Z,13.50
2017-07-14T21:48:28.480Z,13.50
2017-07-14T21:50:56.017Z,13.50
2017-07-14T21:53:23.563Z,13.50
2017-07-14T21:55:51.750Z,13.50
2017-07-14T21:58:19.291Z,13.50
2017-07-14T22:00:46.864Z,13.60
2017-07-14T22:03:14.418Z,13.60
2017-07-14T22:05:42.646Z,13.60
2017-07-14T22:08:10.330Z,13.60
2017-07-14T22:10:37.865Z,13.60
2017-07-14T22:13:05.449Z,13.60
2017-07-14T22:15:32.989Z,13.60
2017-07-14T22:18:00.806Z,13.60
2017-07-14T22:20:28.397Z,13.60
2017-07-14T22:22:56.707Z,13.60
2017-07-14T22:25:24.522Z,13.60
2017-07-14T22:27:52.063Z,13.60
2017-07-14T22:30:19.608Z,13.60
2017-07-14T22:32:47.170Z,13.60
2017-07-14T22:35:14.779Z,13.70
2017-07-14T22:37:42.314Z,13.60
2017-07-14T22:40:10.165Z,13.50
2017-07-14T22:42:37.690Z,13.50
2017-07-14T22:45:05.257Z,13.50
2017-07-14T22:47:32.802Z,13.40
2017-07-14T22:50:00.330Z,13.50
2017-07-14T22:52:29.827Z,13.40
2017-07-14T22:54:57.358Z,13.50
2017-07-14T22:57:24.887Z,13.40
2017-07-14T22:59:52.433Z,13.40
2017-07-14T23:02:19.963Z,13.30
2017-07-14T23:04:48.425Z,13.20
2017-07-14T23:07:15.942Z,13.20
2017-07-14T23:09:43.880Z,13.20
2017-07-14T23:12:12.217Z,13.10
2017-07-14T23:14:39.733Z,13.10
2017-07-14T23:17:07.537Z,13.10
2017-07-14T23:19:35.042Z,13.10
2017-07-14T23:22:02.554Z,13.10
2017-07-14T23:24:30.103Z,13.00
2017-07-14T23:26:57.645Z,13.00
2017-07-14T23:29:25.193Z,13.00
2017-07-14T23:31:52.730Z,12.90
2017-07-14T23:34:20.678Z,12.80
2017-07-14T23:36:48.186Z,12.80
2017-07-14T23:39:15.716Z,12.70
2017-07-14T23:41:43.257Z,12.70
2017-07-14T23:44:10.767Z,12.60
2017-07-14T23:46:38.305Z,12.60
2017-07-14T23:49:05.853Z,12.50
2017-07-14T23:51:34.147Z,12.40
2017-07-14T23:54:01.726Z,12.40
2017-07-14T23:56:29.613Z,12.40
2017-07-14T23:58:57.132Z,12.40
